KNLC

Lemoore NAS (Reeves Field) Airport

Lemoore, California, USA
METAR KNLC 220156Z VRB05KT 10SM FEW050 SCT220 26/07 A2976 RMK AO2 SLP078 RH/28 T02610072
Observed Flight Rules
May-22 @ 01:56 UTC (38 minutes ago) Visual Flight Rules
Wind Visibility Clouds
Variable at 5 knots 10 miles
  • Few at 5,000' AGL
  • Scattered at 22,000' AGL
Temperatures Readings
Current 26°C / 79°F
Dewpoint 7°C / 45°F
Humidity 30%
Altimeter 29.76" Hg
Pressure 1007.8 hPa
Elevation 72
METAR KNLC 220156Z VRB05KT 10SM FEW050 SCT220 26/07 A2976 RMK AO2 SLP078 RH/28 T02610072
Observed Flight Rules
May-22 @ 01:56 UTC
(38 minutes ago)
VFR
Wind Visibility
Variable at 5 knots 10 miles
Clouds
  • Few at 5,000' AGL
  • Scattered at 22,000' AGL
Temperature Dewpoint
26°C / 79°F 7°C / 45°F
Humidity Altimeter Pressure
30% 29.76" Hg 1007.8 hPa